createdAt,value
2022-09-09T00:47:45.879Z,1.50
2022-09-09T00:50:43.168Z,1.63
2022-09-09T00:54:11.761Z,1.75
2022-09-09T00:57:32.232Z,1.30
2022-09-09T01:46:14.738Z,1.27
2022-09-09T01:49:04.407Z,1.60
2022-09-09T01:51:55.174Z,1.60
2022-09-09T01:54:49.446Z,1.50
2022-09-09T01:57:51.745Z,1.60
2022-09-09T02:45:15.055Z,1.35
2022-09-09T02:48:30.835Z,1.20
2022-09-09T02:51:39.846Z,1.40
2022-09-09T02:54:33.671Z,1.30
2022-09-09T02:57:28.908Z,1.40
2022-09-09T04:32:02.549Z,1.40
2022-09-09T04:34:48.680Z,1.00
2022-09-09T04:37:34.407Z,1.20
2022-09-09T04:40:19.638Z,1.10
2022-09-09T04:43:05.863Z,1.00
2022-09-09T04:45:53.416Z,1.13
2022-09-09T04:48:41.394Z,1.13
2022-09-09T04:51:29.173Z,1.20
2022-09-09T04:54:14.291Z,1.02
2022-09-09T04:57:01.731Z,1.20
2022-09-09T04:59:47.224Z,1.10
2022-09-09T05:02:33.207Z,1.30
2022-09-09T05:05:19.709Z,1.30
2022-09-09T05:08:08.257Z,1.15
2022-09-09T05:10:53.641Z,2.33
2022-09-09T05:13:41.420Z,2.28
2022-09-09T05:16:27.462Z,2.33
2022-09-09T05:19:13.673Z,2.28
2022-09-09T05:22:06.009Z,2.25
2022-09-09T05:25:01.417Z,2.38
2022-09-09T05:27:46.986Z,2.40
2022-09-09T05:30:33.219Z,2.40
2022-09-09T05:33:20.308Z,2.17
2022-09-09T05:36:17.061Z,2.20
2022-09-09T05:39:02.879Z,2.38
2022-09-09T05:41:52.524Z,1.70
2022-09-09T05:44:38.675Z,2.10
2022-09-09T05:47:24.202Z,2.20
2022-09-09T05:50:09.566Z,2.00
2022-09-09T05:52:55.580Z,1.88
2022-09-09T05:55:40.528Z,1.50
2022-09-09T05:58:25.522Z,1.77
2022-09-09T06:01:15.533Z,1.88
2022-09-09T06:04:01.935Z,1.65
2022-09-09T06:06:47.518Z,1.75
2022-09-09T06:09:36.507Z,1.52
2022-09-09T06:12:21.859Z,1.57
2022-09-09T06:15:08.304Z,1.60
2022-09-09T06:17:56.682Z,1.90
2022-09-09T06:20:41.674Z,2.08
2022-09-09T06:23:27.990Z,1.75
2022-09-09T06:26:22.377Z,2.00
2022-09-09T06:29:09.351Z,2.00
2022-09-09T06:31:54.526Z,1.90
2022-09-09T06:34:41.902Z,2.00
2022-09-09T06:37:27.067Z,1.98
2022-09-09T06:40:12.669Z,2.00
2022-09-09T06:43:01.906Z,1.80
2022-09-09T06:46:13.914Z,1.58
2022-09-09T06:49:00.834Z,1.50
2022-09-09T06:51:47.281Z,2.10
2022-09-09T06:54:32.967Z,1.80
2022-09-09T06:57:36.379Z,2.00
2022-09-09T07:00:24.986Z,1.70
2022-09-09T07:03:11.218Z,1.80
2022-09-09T07:05:57.503Z,1.70
2022-09-09T07:08:55.760Z,1.77
2022-09-09T07:11:51.633Z,1.52
2022-09-09T07:14:38.984Z,1.70
2022-09-09T07:17:29.244Z,1.60
2022-09-09T07:20:15.623Z,1.40
2022-09-09T07:23:01.001Z,1.90
2022-09-09T07:25:46.707Z,2.03
2022-09-09T07:28:33.048Z,2.00
2022-09-09T07:31:21.825Z,1.70
2022-09-09T07:34:07.958Z,2.08
2022-09-09T07:36:53.302Z,1.90
2022-09-09T07:39:39.648Z,1.60
2022-09-09T07:42:26.234Z,1.80
2022-09-09T07:45:13.130Z,1.88
2022-09-09T07:47:58.357Z,1.40
2022-09-09T07:50:43.739Z,1.47
2022-09-09T07:53:29.333Z,1.55
2022-09-09T07:56:17.952Z,1.50
2022-09-09T07:59:05.243Z,1.50
2022-09-09T08:02:00.001Z,1.73
2022-09-09T08:04:49.331Z,1.30
2022-09-09T08:07:36.947Z,1.30
2022-09-09T08:10:23.751Z,1.52
2022-09-09T08:13:18.767Z,1.50
2022-09-09T08:16:18.230Z,1.40
2022-09-09T08:19:04.637Z,1.53
2022-09-09T08:21:50.053Z,1.35
2022-09-09T08:24:35.579Z,1.30
2022-09-09T08:27:20.756Z,1.42
2022-09-09T08:30:07.128Z,1.30
2022-09-09T08:32:54.075Z,1.50
2022-09-09T08:35:40.023Z,1.30
2022-09-09T08:38:25.627Z,1.35
2022-09-09T08:41:38.819Z,1.30
2022-09-09T08:44:48.135Z,1.40
2022-09-09T08:47:56.099Z,1.20
2022-09-09T08:50:44.331Z,1.35
2022-09-09T08:53:45.588Z,1.17
2022-09-09T08:56:33.621Z,1.33
2022-09-09T08:59:20.172Z,1.33
2022-09-09T09:02:33.931Z,1.73
2022-09-09T09:05:30.280Z,1.40
2022-09-09T09:08:49.433Z,1.13
2022-09-09T09:11:41.562Z,1.75
2022-09-09T09:17:22.981Z,1.23
2022-09-09T09:20:16.001Z,1.40
2022-09-09T09:23:05.149Z,1.38
2022-09-09T09:25:53.243Z,1.20
2022-09-09T09:28:39.315Z,1.30
2022-09-09T09:31:30.543Z,1.30
2022-09-09T09:34:16.011Z,1.30
2022-09-09T09:37:06.321Z,1.58
2022-09-09T09:43:09.588Z,1.50
2022-09-09T09:46:16.318Z,1.30
2022-09-09T09:49:04.277Z,1.40
2022-09-09T09:51:50.570Z,1.40
2022-09-09T09:54:43.008Z,1.30
2022-09-09T09:57:30.952Z,1.20
2022-09-09T10:00:21.527Z,1.30
2022-09-09T10:03:42.157Z,1.35
2022-09-09T10:06:35.818Z,1.40
2022-09-09T10:09:33.715Z,1.50
2022-09-09T10:12:37.127Z,1.40
2022-09-09T10:15:52.218Z,1.60
2022-09-09T10:18:43.799Z,1.50
2022-09-09T10:21:46.950Z,1.48
2022-09-09T10:24:41.061Z,1.45
2022-09-09T10:27:46.276Z,1.55
2022-09-09T10:30:43.674Z,1.00
2022-09-09T10:33:43.653Z,1.27
2022-09-09T10:36:30.499Z,1.10
2022-09-09T10:39:27.689Z,1.10
2022-09-09T10:42:17.709Z,1.20
2022-09-09T10:45:34.677Z,1.37
2022-09-09T10:48:36.255Z,1.25
2022-09-09T10:51:37.922Z,1.23
2022-09-09T10:54:37.549Z,1.05
2022-09-09T10:57:33.093Z,1.38
2022-09-09T11:00:31.155Z,1.20
2022-09-09T11:03:30.272Z,1.35
2022-09-09T11:06:22.522Z,1.13
2022-09-09T11:09:18.104Z,1.17
2022-09-09T11:12:03.669Z,1.20
2022-09-09T11:15:07.958Z,1.27
2022-09-09T11:18:00.087Z,1.25
2022-09-09T11:20:47.999Z,1.50
2022-09-09T11:23:49.971Z,1.30
2022-09-09T11:26:50.573Z,1.10
2022-09-09T11:30:07.885Z,1.10
2022-09-09T11:33:29.966Z,1.10
2022-09-09T11:36:37.436Z,1.10
2022-09-09T11:39:31.777Z,1.00
2022-09-09T11:42:24.655Z,0.90
2022-09-09T11:45:12.508Z,1.20
2022-09-09T11:47:59.910Z,1.20
2022-09-09T11:50:44.736Z,1.17
2022-09-09T11:53:30.138Z,0.73
2022-09-09T11:56:27.137Z,1.00
2022-09-09T11:59:28.962Z,1.00
2022-09-09T12:02:23.400Z,0.90
2022-09-09T12:05:12.577Z,1.00
2022-09-09T12:08:00.285Z,0.95
2022-09-09T12:10:56.899Z,0.80
2022-09-09T12:13:53.942Z,0.90
2022-09-09T12:16:41.152Z,1.00
2022-09-09T12:19:27.168Z,0.85
2022-09-09T12:22:46.096Z,1.25
2022-09-09T12:25:59.227Z,0.95
2022-09-09T12:29:00.893Z,1.00
2022-09-09T12:32:04.221Z,0.95
2022-09-09T12:34:54.474Z,0.80
2022-09-09T12:37:41.601Z,1.00
2022-09-09T12:40:29.614Z,0.75
2022-09-09T12:43:24.352Z,1.07
2022-09-09T12:46:17.740Z,1.08
2022-09-09T12:49:05.386Z,0.82
2022-09-09T12:51:51.345Z,1.00
2022-09-09T12:54:38.525Z,1.00
2022-09-09T12:57:26.969Z,1.00
2022-09-09T13:00:18.237Z,1.20
2022-09-09T13:03:18.022Z,1.15
2022-09-09T13:06:15.230Z,1.10
2022-09-09T13:09:04.798Z,1.10
2022-09-09T13:11:57.440Z,1.00
2022-09-09T13:14:47.634Z,1.27
2022-09-09T13:17:33.107Z,0.90
2022-09-09T13:20:20.203Z,1.20
2022-09-09T13:23:05.421Z,0.90
2022-09-09T13:25:56.528Z,1.20
2022-09-09T13:28:41.527Z,0.88
2022-09-09T13:31:33.811Z,1.20
2022-09-09T13:34:31.220Z,0.90
2022-09-09T13:37:28.762Z,1.10
2022-09-09T13:40:20.959Z,1.00
2022-09-09T13:43:06.421Z,1.23
2022-09-09T13:46:00.909Z,0.95
2022-09-09T13:48:55.866Z,0.77
2022-09-09T13:51:47.784Z,1.10
2022-09-09T13:54:33.236Z,0.83
2022-09-09T13:57:21.279Z,0.88
2022-09-09T14:00:08.178Z,1.00
2022-09-09T14:02:55.898Z,0.90
2022-09-09T14:05:41.093Z,0.85
2022-09-09T14:08:28.011Z,0.90
2022-09-09T14:11:14.108Z,0.85
2022-09-09T14:13:59.108Z,1.00
2022-09-09T14:16:44.132Z,0.98
2022-09-09T14:19:29.264Z,0.80
2022-09-09T14:22:14.734Z,1.10
2022-09-09T14:24:59.736Z,0.98
2022-09-09T14:27:46.834Z,1.10
2022-09-09T14:30:32.164Z,1.00
2022-09-09T14:33:18.120Z,0.80
2022-09-09T14:36:04.651Z,1.10
2022-09-09T14:38:49.999Z,1.27
2022-09-09T14:41:35.222Z,0.90
2022-09-09T14:44:20.166Z,0.93
2022-09-09T14:47:06.399Z,1.00
2022-09-09T14:49:51.556Z,0.90
2022-09-09T14:52:37.641Z,1.00
2022-09-09T14:55:22.872Z,1.30
2022-09-09T14:58:08.300Z,1.25
2022-09-09T15:00:54.121Z,1.20
2022-09-09T15:03:41.029Z,1.10
2022-09-09T15:06:31.519Z,1.30
2022-09-09T15:09:16.913Z,1.08
2022-09-09T15:12:02.837Z,1.00
2022-09-09T15:14:48.190Z,1.05
2022-09-09T15:17:33.578Z,1.10
2022-09-09T15:20:18.755Z,1.10
2022-09-09T15:23:03.967Z,1.30
2022-09-09T15:25:56.785Z,1.00
2022-09-09T15:28:44.506Z,1.02
2022-09-09T15:31:32.000Z,1.10
2022-09-09T15:34:18.323Z,1.30
2022-09-09T15:37:03.527Z,0.90
2022-09-09T15:39:49.638Z,0.95
2022-09-09T15:42:34.610Z,1.25
2022-09-09T15:45:21.063Z,1.00
2022-09-09T15:48:06.576Z,1.10
2022-09-09T15:51:10.862Z,1.02
2022-09-09T15:54:06.915Z,1.20
2022-09-09T15:56:57.538Z,1.00
2022-09-09T15:59:42.811Z,1.30
2022-09-09T16:02:27.950Z,1.00
2022-09-09T16:05:13.274Z,0.93
2022-09-09T16:07:59.406Z,1.08
2022-09-09T16:10:44.930Z,1.10
2022-09-09T16:13:34.959Z,1.30
2022-09-09T16:16:23.167Z,1.30
2022-09-09T16:19:10.860Z,1.10
2022-09-09T16:21:56.152Z,1.17
2022-09-09T16:24:41.119Z,1.10
2022-09-09T16:27:26.113Z,1.10
2022-09-09T16:30:11.591Z,1.30
2022-09-09T16:32:56.962Z,1.30
2022-09-09T16:35:42.086Z,1.15
2022-09-09T16:38:27.274Z,1.50
2022-09-09T16:41:14.339Z,1.40
2022-09-09T16:44:05.863Z,1.27
2022-09-09T16:46:58.166Z,1.10
2022-09-09T16:49:45.488Z,1.20
2022-09-09T16:52:30.508Z,1.23
2022-09-09T16:55:15.720Z,1.53
2022-09-09T16:58:00.686Z,1.52
2022-09-09T17:00:47.475Z,1.30
2022-09-09T17:03:33.531Z,1.50
2022-09-09T17:06:18.625Z,1.58
2022-09-09T17:09:08.964Z,1.43
2022-09-09T17:11:55.750Z,1.42
2022-09-09T17:14:40.654Z,1.33
2022-09-09T17:17:32.142Z,1.35
2022-09-09T17:20:17.684Z,1.88
2022-09-09T17:23:02.860Z,1.73
2022-09-09T17:25:57.798Z,1.60
2022-09-09T17:28:43.931Z,1.80
2022-09-09T17:31:30.412Z,1.63
2022-09-09T17:34:15.785Z,1.50
2022-09-09T17:37:00.773Z,1.70
2022-09-09T17:39:46.003Z,1.85
2022-09-09T17:42:31.954Z,1.33
2022-09-09T17:45:17.536Z,1.52
2022-09-09T17:48:03.737Z,1.30
2022-09-09T17:50:48.985Z,1.50
2022-09-09T17:53:42.966Z,1.40
2022-09-09T17:56:31.712Z,1.50
2022-09-09T17:59:18.662Z,1.25
2022-09-09T18:02:05.661Z,1.65
2022-09-09T18:04:50.935Z,1.40
2022-09-09T18:07:36.160Z,1.20
2022-09-09T18:10:21.480Z,1.38
2022-09-09T18:13:08.469Z,1.30
2022-09-09T18:15:54.991Z,1.27
2022-09-09T18:18:40.291Z,1.10
2022-09-09T18:21:27.594Z,1.25
2022-09-09T18:24:15.043Z,1.17
2022-09-09T18:27:01.184Z,1.10
2022-09-09T18:29:46.651Z,1.15
2022-09-09T18:32:31.857Z,1.50
2022-09-09T18:35:16.992Z,1.30
2022-09-09T18:38:02.205Z,1.38
2022-09-09T18:40:47.659Z,1.40
2022-09-09T18:43:33.079Z,1.60
2022-09-09T18:46:19.599Z,1.47
2022-09-09T18:49:05.935Z,1.33
2022-09-09T18:51:51.444Z,1.33
2022-09-09T18:54:36.734Z,1.33
2022-09-09T18:57:22.098Z,1.42
2022-09-09T19:00:10.059Z,1.50
2022-09-09T19:02:55.698Z,1.45
2022-09-09T19:05:40.947Z,1.50
2022-09-09T19:08:26.039Z,1.10
2022-09-09T19:11:25.028Z,1.40
2022-09-09T19:14:13.277Z,1.13
2022-09-09T19:16:58.810Z,1.23
2022-09-09T19:19:44.245Z,1.10
2022-09-09T19:22:29.731Z,0.98
2022-09-09T19:25:15.278Z,1.35
2022-09-09T19:28:01.336Z,1.30
2022-09-09T19:30:47.850Z,1.30
2022-09-09T19:33:33.707Z,1.30
2022-09-09T19:36:19.760Z,1.30
2022-09-09T19:39:06.428Z,1.02
2022-09-09T19:41:52.167Z,1.10
2022-09-09T19:44:37.900Z,1.13
2022-09-09T19:47:24.097Z,1.35
2022-09-09T19:50:10.003Z,1.25
2022-09-09T19:52:55.757Z,1.35
2022-09-09T19:55:40.741Z,1.33
2022-09-09T19:58:27.169Z,1.30
2022-09-09T20:01:18.530Z,1.20
2022-09-09T20:04:06.269Z,1.00
2022-09-09T20:06:53.479Z,1.02
2022-09-09T20:09:39.409Z,1.40
2022-09-09T20:12:25.720Z,1.27
2022-09-09T20:15:12.928Z,1.10
2022-09-09T20:17:59.224Z,0.90
2022-09-09T20:20:44.955Z,1.00
2022-09-09T20:23:31.566Z,1.17
2022-09-09T20:26:21.257Z,1.20
2022-09-09T20:29:15.765Z,1.10
2022-09-09T20:32:02.738Z,1.20
2022-09-09T20:34:49.491Z,0.98
2022-09-09T20:37:35.602Z,1.20
2022-09-09T20:40:22.461Z,1.20
2022-09-09T20:43:10.710Z,1.23
2022-09-09T20:45:58.078Z,0.90
2022-09-09T20:48:44.797Z,1.30
2022-09-09T20:51:33.673Z,1.07
2022-09-09T20:54:26.661Z,1.50
2022-09-09T20:57:14.690Z,1.20
2022-09-09T21:00:00.166Z,1.25
2022-09-09T21:02:51.253Z,1.60
2022-09-09T21:05:39.346Z,1.60
2022-09-09T21:08:30.063Z,1.40
2022-09-09T21:11:15.949Z,1.30
2022-09-09T21:14:01.998Z,1.10
2022-09-09T21:16:47.017Z,1.17
2022-09-09T21:19:33.332Z,1.10
2022-09-09T21:22:18.772Z,1.17
2022-09-09T21:25:04.209Z,1.10
2022-09-09T21:27:49.026Z,1.30
2022-09-09T21:30:40.541Z,1.10
2022-09-09T21:33:28.753Z,1.03
2022-09-09T21:36:15.048Z,1.10
2022-09-09T21:39:01.111Z,1.20
2022-09-09T21:41:46.825Z,1.40
2022-09-09T21:44:32.986Z,1.65
2022-09-09T21:47:18.398Z,1.00
2022-09-09T21:50:04.687Z,1.23
2022-09-09T21:52:50.032Z,1.55
2022-09-09T21:55:37.371Z,1.20
2022-09-09T21:58:22.455Z,1.20
2022-09-09T22:01:16.413Z,1.20
2022-09-09T22:04:01.901Z,1.30
2022-09-09T22:06:48.384Z,1.20
2022-09-09T22:09:33.945Z,1.17
2022-09-09T22:12:19.676Z,1.23
2022-09-09T22:15:07.888Z,1.20
2022-09-09T22:17:53.555Z,1.10
2022-09-09T22:20:44.151Z,1.10
2022-09-09T22:23:31.270Z,1.20
2022-09-09T22:26:16.592Z,1.23
2022-09-09T22:29:14.647Z,1.30
2022-09-09T22:32:00.350Z,1.17
2022-09-09T22:34:46.884Z,1.30
2022-09-09T22:37:32.047Z,1.35
2022-09-09T22:40:17.165Z,1.30
2022-09-09T22:43:02.787Z,1.40
2022-09-09T22:45:48.864Z,1.30
2022-09-09T22:48:34.713Z,1.10
2022-09-09T22:51:19.746Z,1.25
2022-09-09T22:54:05.604Z,1.33
2022-09-09T22:56:52.265Z,1.07
2022-09-09T22:59:39.305Z,1.08
2022-09-09T23:45:37.906Z,1.13
2022-09-09T23:48:24.234Z,1.10
2022-09-09T23:51:14.964Z,0.98
2022-09-09T23:54:04.684Z,1.10
2022-09-09T23:56:49.506Z,1.10
2022-09-09T23:59:34.930Z,1.30
